Time;durP1;ratioP1;P1;durP2;ratioP2;P2;SDS_P1;SDS_P2;PMS_P1;PMS_P2;Temp;Humidity;BMP_temperature;BMP_pressure;BME280_temperature;BME280_humidity;BME280_pressure;Samples;Min_cycle;Max_cycle;Signal;HPM_P1;HPM_P2
2022/07/01 00:00:30;;;;;;;3.53;0.80;;;15.50;99.90;;;;;;5091007;28;20568;-72
2022/07/01 00:02:57;;;;;;;1.55;1.15;;;15.50;99.90;;;;;;5090756;28;20326;-71
2022/07/01 00:05:24;;;;;;;2.25;0.95;;;15.50;99.90;;;;;;5090512;28;20685;-72
2022/07/01 00:07:51;;;;;;;2.60;0.90;;;15.50;99.90;;;;;;5090360;28;20221;-71
2022/07/01 00:10:18;;;;;;;2.40;0.70;;;15.70;99.90;;;;;;5090704;28;20247;-72
2022/07/01 00:12:46;;;;;;;5.85;1.35;;;15.70;99.90;;;;;;5090601;28;20209;-71
2022/07/01 00:15:15;;;;;;;2.05;1.08;;;15.70;99.90;;;;;;5091177;28;20212;-71
2022/07/01 00:17:43;;;;;;;2.15;0.98;;;15.70;99.90;;;;;;5090949;28;20197;-70
2022/07/01 00:20:11;;;;;;;2.10;1.17;;;15.60;99.90;;;;;;5090698;28;20205;-71
2022/07/01 00:22:38;;;;;;;1.77;0.95;;;15.60;99.90;;;;;;5090589;28;20251;-70
2022/07/01 00:25:06;;;;;;;1.00;0.88;;;15.60;99.90;;;;;;5090169;28;20205;-70
2022/07/01 00:27:35;;;;;;;2.35;1.10;;;15.50;99.90;;;;;;5090032;28;20229;-71
2022/07/01 00:30:02;;;;;;;1.00;0.90;;;15.40;99.90;;;;;;5090456;28;20643;-72
2022/07/01 00:32:30;;;;;;;1.40;0.93;;;15.50;99.90;;;;;;5081093;28;20214;-72
2022/07/01 00:34:57;;;;;;;1.40;1.02;;;15.50;99.90;;;;;;5088915;28;20669;-72
2022/07/01 00:37:24;;;;;;;2.42;1.40;;;15.40;99.90;;;;;;5094673;28;20205;-72
2022/07/01 00:39:51;;;;;;;1.63;1.20;;;15.50;99.90;;;;;;5094063;28;20262;-72
2022/07/01 00:42:18;;;;;;;2.13;1.65;;;15.50;99.90;;;;;;5066182;28;20640;-72
2022/07/01 00:44:45;;;;;;;4.90;1.30;;;15.40;99.90;;;;;;5094655;28;20250;-72
2022/07/01 00:47:14;;;;;;;1.70;1.20;;;15.40;99.90;;;;;;5094652;28;20264;-72
2022/07/01 00:49:42;;;;;;;1.33;1.00;;;15.50;99.90;;;;;;5094778;28;20213;-72
2022/07/01 00:52:10;;;;;;;2.40;1.00;;;15.50;99.90;;;;;;5094238;28;20202;-74
2022/07/01 00:54:38;;;;;;;4.28;1.70;;;15.40;99.90;;;;;;5094514;28;20213;-72
2022/07/01 00:57:11;;;;;;;3.20;1.10;;;15.50;99.90;;;;;;5093669;28;20246;-71
2022/07/01 00:59:39;;;;;;;2.45;1.17;;;15.50;99.90;;;;;;5094292;28;20255;-71
2022/07/01 01:02:08;;;;;;;2.83;1.38;;;15.50;99.90;;;;;;5093863;28;20205;-71
2022/07/01 01:04:35;;;;;;;1.35;0.95;;;15.40;99.90;;;;;;5094090;28;20283;-72
2022/07/01 01:07:04;;;;;;;2.78;1.20;;;15.40;99.90;;;;;;5093490;28;20241;-71
2022/07/01 01:09:32;;;;;;;1.77;1.30;;;15.40;99.90;;;;;;5079803;28;20229;-70
2022/07/01 01:11:59;;;;;;;6.10;2.28;;;15.40;99.90;;;;;;5093825;28;20622;-71
2022/07/01 01:14:26;;;;;;;1.58;1.20;;;15.30;99.90;;;;;;5093907;28;20282;-73
2022/07/01 01:16:53;;;;;;;1.85;1.33;;;15.30;99.90;;;;;;5093423;28;20217;-75
2022/07/01 01:19:20;;;;;;;5.90;1.27;;;15.40;99.90;;;;;;5078904;28;20594;-71
2022/07/01 01:21:49;;;;;;;3.10;1.55;;;15.40;99.90;;;;;;5072982;28;20297;-71
2022/07/01 01:24:16;;;;;;;3.20;1.92;;;15.40;99.90;;;;;;5073204;28;20202;-71
2022/07/01 01:26:43;;;;;;;3.35;1.40;;;15.40;99.90;;;;;;5073695;28;20198;-72
2022/07/01 01:29:09;;;;;;;3.90;1.17;;;15.40;99.90;;;;;;5073097;28;20275;-73
2022/07/01 01:31:36;;;;;;;2.70;1.42;;;15.50;99.90;;;;;;5073314;28;20621;-72
2022/07/01 01:34:04;;;;;;;1.95;1.10;;;15.40;99.90;;;;;;5072614;28;20651;-72
2022/07/01 01:36:31;;;;;;;1.63;1.05;;;15.50;99.90;;;;;;5073451;28;20260;-73
2022/07/01 01:39:02;;;;;;;2.28;1.65;;;15.50;99.90;;;;;;5072600;28;20252;-72
2022/07/01 01:41:29;;;;;;;4.50;1.70;;;15.60;99.90;;;;;;5073088;28;20214;-73
2022/07/01 01:43:56;;;;;;;2.75;1.50;;;15.50;99.90;;;;;;5072710;28;20217;-73
2022/07/01 01:46:23;;;;;;;1.85;1.63;;;15.40;99.90;;;;;;5071659;28;20685;-74
2022/07/01 01:48:50;;;;;;;5.45;2.45;;;15.40;99.90;;;;;;5072456;28;20229;-74
2022/07/01 01:51:18;;;;;;;3.05;1.48;;;15.40;99.90;;;;;;5072890;28;20259;-75
2022/07/01 01:53:45;;;;;;;2.03;1.73;;;15.50;99.90;;;;;;5072758;28;20549;-74
2022/07/01 01:56:14;;;;;;;3.25;1.45;;;15.50;99.90;;;;;;5073093;28;20260;-73
2022/07/01 01:58:42;;;;;;;1.75;1.60;;;15.50;99.90;;;;;;5073136;28;20644;-72
2022/07/01 02:01:10;;;;;;;3.88;1.50;;;15.60;99.90;;;;;;5072439;28;20701;-72
2022/07/01 02:03:36;;;;;;;3.20;1.83;;;15.50;99.90;;;;;;5072906;28;20206;-72
2022/07/01 02:06:04;;;;;;;3.25;1.27;;;15.60;99.90;;;;;;5072273;28;20619;-73
2022/07/01 02:08:31;;;;;;;3.90;1.60;;;15.50;99.90;;;;;;5072273;28;20287;-72
2022/07/01 02:10:58;;;;;;;4.32;1.52;;;15.60;99.90;;;;;;5072154;28;20586;-73
2022/07/01 02:13:27;;;;;;;4.15;2.58;;;15.60;99.90;;;;;;5072433;28;20263;-72
2022/07/01 02:15:54;;;;;;;2.13;1.20;;;15.60;99.90;;;;;;5072108;28;20615;-72
2022/07/01 02:18:21;;;;;;;4.25;1.83;;;15.50;99.90;;;;;;5072373;28;20255;-71
2022/07/01 02:20:48;;;;;;;1.98;1.23;;;15.50;99.90;;;;;;5072166;28;20202;-72
2022/07/01 02:23:15;;;;;;;4.30;1.35;;;15.40;99.90;;;;;;5071957;28;20619;-72
2022/07/01 02:25:42;;;;;;;3.05;1.75;;;15.30;99.90;;;;;;5072636;28;20655;-72
2022/07/01 02:28:10;;;;;;;2.47;1.38;;;15.30;99.90;;;;;;5071811;28;20234;-72
2022/07/01 02:30:39;;;;;;;3.40;1.80;;;15.40;99.90;;;;;;5071981;28;20615;-72
2022/07/01 02:33:07;;;;;;;2.22;1.48;;;15.40;99.90;;;;;;5071791;28;20669;-72
2022/07/01 02:35:35;;;;;;;2.22;1.83;;;15.30;99.90;;;;;;5071988;28;20205;-72
2022/07/01 02:38:02;;;;;;;6.03;1.23;;;15.30;99.90;;;;;;5071623;28;20279;-71
2022/07/01 02:40:28;;;;;;;2.25;1.15;;;15.30;99.90;;;;;;5071845;28;20275;-71
2022/07/01 02:42:55;;;;;;;6.35;2.00;;;15.40;99.90;;;;;;5071447;28;20742;-73
2022/07/01 02:45:24;;;;;;;2.58;1.67;;;15.40;99.90;;;;;;5071856;28;20206;-72
2022/07/01 02:47:52;;;;;;;5.28;3.90;;;15.40;99.90;;;;;;5071573;28;20226;-73
2022/07/01 02:50:20;;;;;;;3.33;1.40;;;15.50;99.90;;;;;;5071775;28;20278;-73
2022/07/01 02:52:47;;;;;;;1.63;1.38;;;15.40;99.90;;;;;;5071171;28;20263;-73
2022/07/01 02:55:15;;;;;;;2.35;1.45;;;15.40;99.90;;;;;;5071639;28;20202;-72
2022/07/01 02:57:43;;;;;;;2.83;1.50;;;15.40;99.90;;;;;;5071255;28;20255;-74
2022/07/01 03:00:13;;;;;;;3.75;1.42;;;15.30;99.90;;;;;;5071673;28;20248;-74
2022/07/01 03:02:40;;;;;;;2.67;1.52;;;15.30;99.90;;;;;;5071836;28;20206;-73
2022/07/01 03:05:10;;;;;;;2.67;1.42;;;15.30;99.90;;;;;;5071101;28;20210;-74
2022/07/01 03:07:37;;;;;;;4.35;1.83;;;15.30;99.90;;;;;;5070937;28;20202;-73
2022/07/01 03:10:04;;;;;;;1.85;1.15;;;15.30;99.90;;;;;;5071334;28;20202;-75
2022/07/01 03:12:34;;;;;;;3.75;2.20;;;15.20;99.90;;;;;;5071657;28;20228;-75
2022/07/01 03:15:03;;;;;;;2.05;1.50;;;15.10;99.90;;;;;;5070744;28;20293;-73
2022/07/01 03:17:32;;;;;;;4.63;1.48;;;15.10;99.90;;;;;;5071261;28;20209;-73
2022/07/01 03:20:00;;;;;;;6.13;1.77;;;15.10;99.90;;;;;;5070552;28;20229;-74
2022/07/01 03:22:30;;;;;;;1.92;1.08;;;15.00;99.90;;;;;;5071185;28;20206;-74
2022/07/01 03:24:58;;;;;;;3.33;1.77;;;14.90;99.90;;;;;;5070761;28;20271;-75
2022/07/01 03:27:26;;;;;;;2.10;1.48;;;14.90;99.90;;;;;;5071212;28;20213;-74
2022/07/01 03:29:53;;;;;;;1.40;1.30;;;14.90;99.90;;;;;;5070666;28;20295;-72
2022/07/01 03:32:20;;;;;;;5.18;2.35;;;14.90;99.90;;;;;;5070921;28;20209;-71
2022/07/01 03:34:49;;;;;;;2.45;1.38;;;14.90;99.90;;;;;;5070582;28;20206;-71
2022/07/01 03:37:17;;;;;;;3.38;1.35;;;14.90;99.90;;;;;;5071215;28;20307;-73
2022/07/01 03:39:46;;;;;;;2.33;1.40;;;15.00;99.90;;;;;;5071102;28;20218;-70
2022/07/01 03:42:14;;;;;;;1.95;1.13;;;15.10;99.90;;;;;;5071007;28;20214;-76
2022/07/01 03:44:41;;;;;;;1.60;1.15;;;15.10;99.90;;;;;;5071206;28;20630;-74
2022/07/01 03:47:09;;;;;;;3.75;2.08;;;15.10;99.90;;;;;;5070322;28;20210;-71
2022/07/01 03:49:36;;;;;;;4.35;1.55;;;15.10;99.90;;;;;;5070679;28;20241;-75
2022/07/01 03:52:05;;;;;;;7.38;1.98;;;15.00;99.90;;;;;;5070495;28;20238;-75
2022/07/01 03:54:32;;;;;;;4.47;1.40;;;15.00;99.90;;;;;;5070618;28;20267;-71
2022/07/01 03:57:02;;;;;;;3.20;1.83;;;14.90;99.90;;;;;;5070404;28;20206;-76
2022/07/01 03:59:31;;;;;;;3.28;1.35;;;14.90;99.90;;;;;;5070718;28;20206;-74
2022/07/01 04:01:59;;;;;;;2.20;1.55;;;14.90;99.90;;;;;;5070326;28;20206;-73
2022/07/01 04:04:27;;;;;;;7.00;1.92;;;14.80;99.90;;;;;;5070486;28;20213;-76
2022/07/01 04:06:54;;;;;;;2.55;2.13;;;14.80;99.90;;;;;;5070479;28;20206;-72
2022/07/01 04:09:23;;;;;;;4.25;2.05;;;14.70;99.90;;;;;;5069959;28;20279;-74
2022/07/01 04:11:50;;;;;;;5.00;1.80;;;14.70;99.90;;;;;;5070281;28;20633;-76
2022/07/01 04:14:19;;;;;;;3.38;2.78;;;14.70;99.90;;;;;;5070597;28;20239;-76
2022/07/01 04:16:46;;;;;;;4.88;1.80;;;14.60;99.90;;;;;;5070903;28;20202;-73
2022/07/01 04:19:15;;;;;;;3.47;1.63;;;14.60;99.90;;;;;;5070771;28;20260;-72
2022/07/01 04:24:26;;;;;;;3.08;1.75;;;14.50;99.90;;;;;;5070438;28;20204;-72
2022/07/01 04:26:53;;;;;;;3.88;2.80;;;14.50;99.90;;;;;;5069816;28;20298;-71
2022/07/01 04:29:22;;;;;;;2.70;1.52;;;14.50;99.90;;;;;;5070426;28;20870;-70
2022/07/01 04:31:49;;;;;;;3.10;1.73;;;14.50;99.90;;;;;;5070192;28;20259;-71
2022/07/01 04:34:18;;;;;;;2.50;1.75;;;14.50;99.90;;;;;;5070273;28;20199;-74
2022/07/01 04:36:45;;;;;;;5.07;2.38;;;14.60;99.90;;;;;;5070379;28;20206;-74
2022/07/01 04:39:12;;;;;;;3.92;2.13;;;14.70;99.90;;;;;;5070493;28;20202;-73
2022/07/01 04:44:25;;;;;;;5.07;2.45;;;14.80;99.90;;;;;;5070108;28;20221;-75
2022/07/01 04:46:52;;;;;;;5.40;2.40;;;14.90;99.90;;;;;;5069809;28;20735;-71
2022/07/01 04:49:19;;;;;;;5.82;3.28;;;15.00;99.90;;;;;;5070139;28;20280;-74
2022/07/01 04:51:46;;;;;;;4.65;1.92;;;15.00;99.90;;;;;;5070149;28;20206;-73
2022/07/01 04:54:13;;;;;;;2.90;2.20;;;15.00;99.90;;;;;;5070173;28;20238;-76
2022/07/01 04:56:40;;;;;;;4.18;1.90;;;15.10;99.90;;;;;;5070728;28;20218;-74
2022/07/01 04:59:07;;;;;;;5.93;3.28;;;15.10;99.90;;;;;;5069364;28;20218;-75
2022/07/01 05:01:36;;;;;;;5.28;2.42;;;15.20;99.90;;;;;;5069795;28;20677;-74
2022/07/01 05:04:03;;;;;;;4.07;2.30;;;15.20;99.90;;;;;;5069231;28;20259;-72
2022/07/01 05:06:30;;;;;;;4.45;2.70;;;15.30;99.90;;;;;;5070008;28;20205;-75
2022/07/01 05:08:57;;;;;;;2.97;2.65;;;15.30;99.90;;;;;;5069828;28;20226;-75
2022/07/01 05:11:24;;;;;;;5.07;2.78;;;15.30;99.90;;;;;;5070010;28;20295;-74
2022/07/01 05:13:51;;;;;;;7.68;3.15;;;15.40;99.90;;;;;;5069550;28;20560;-73
2022/07/01 05:16:18;;;;;;;9.10;3.90;;;15.30;99.90;;;;;;5069790;28;20267;-77
2022/07/01 05:24:15;;;;;;;5.13;3.17;;;15.40;99.90;;;;;;5073560;28;20684;-73
2022/07/01 05:26:42;;;;;;;4.07;2.42;;;15.30;99.90;;;;;;5073663;28;20233;-71
2022/07/01 05:29:09;;;;;;;4.50;3.67;;;15.20;99.90;;;;;;5073103;28;20307;-74
2022/07/01 05:31:36;;;;;;;3.97;2.60;;;15.20;99.90;;;;;;5073103;28;20256;-72
2022/07/01 05:34:04;;;;;;;5.10;2.65;;;15.10;99.90;;;;;;5072837;28;20202;-74
2022/07/01 05:36:31;;;;;;;5.45;2.95;;;15.20;99.90;;;;;;5073340;28;20214;-75
2022/07/01 05:38:58;;;;;;;5.82;3.00;;;15.30;99.90;;;;;;5072697;28;20206;-73
2022/07/01 05:41:25;;;;;;;3.45;2.70;;;15.20;99.90;;;;;;5073013;28;20747;-75
2022/07/01 05:43:52;;;;;;;7.93;3.42;;;15.10;99.90;;;;;;5072347;28;20213;-75
2022/07/01 05:46:19;;;;;;;6.13;3.05;;;15.40;99.90;;;;;;5073155;28;20202;-71
2022/07/01 05:48:46;;;;;;;4.00;3.22;;;15.30;99.90;;;;;;5072948;28;20229;-71
2022/07/01 05:51:15;;;;;;;8.75;3.88;;;15.60;99.90;;;;;;5073309;28;20206;-72
2022/07/01 05:53:43;;;;;;;4.20;3.83;;;15.50;99.90;;;;;;5073089;28;20214;-72
2022/07/01 05:56:10;;;;;;;8.45;3.78;;;15.10;99.90;;;;;;5067875;28;20198;-75
2022/07/01 05:58:37;;;;;;;3.40;2.53;;;15.30;99.90;;;;;;5072390;28;20206;-70
2022/07/01 06:01:04;;;;;;;4.10;3.22;;;15.40;99.90;;;;;;5072319;28;20210;-71
2022/07/01 06:03:31;;;;;;;4.57;2.97;;;15.10;99.90;;;;;;5072482;28;20209;-71
2022/07/01 06:05:58;;;;;;;7.90;3.35;;;15.40;99.90;;;;;;5072197;28;20244;-71
2022/07/01 06:08:26;;;;;;;5.40;3.30;;;15.50;99.90;;;;;;5072690;28;20210;-71
2022/07/01 06:10:53;;;;;;;5.68;3.15;;;15.80;99.90;;;;;;5071874;28;20206;-71
2022/07/01 06:13:20;;;;;;;11.25;3.65;;;15.80;99.90;;;;;;5069605;28;20278;-71
2022/07/01 06:15:47;;;;;;;9.00;3.70;;;16.20;99.90;;;;;;5064136;28;20206;-70
2022/07/01 06:18:14;;;;;;;5.47;3.25;;;16.40;99.90;;;;;;5071957;28;20206;-71
2022/07/01 06:20:41;;;;;;;4.88;3.78;;;16.40;99.90;;;;;;5072675;28;20244;-72
2022/07/01 06:23:08;;;;;;;4.85;2.88;;;16.30;99.90;;;;;;5072962;28;20205;-70
2022/07/01 06:25:36;;;;;;;6.28;3.22;;;16.30;99.90;;;;;;5072827;28;20210;-71
2022/07/01 06:28:03;;;;;;;5.75;3.50;;;16.30;99.90;;;;;;5071571;28;20206;-72
2022/07/01 06:30:30;;;;;;;6.28;3.13;;;16.30;99.90;;;;;;5072444;28;20226;-70
2022/07/01 06:32:58;;;;;;;4.22;3.33;;;16.40;99.90;;;;;;5065136;28;20214;-69
2022/07/01 06:35:25;;;;;;;4.05;3.00;;;16.60;99.90;;;;;;5075123;28;20296;-71
2022/07/01 06:37:52;;;;;;;15.68;4.25;;;16.70;99.90;;;;;;5073569;28;20265;-70
2022/07/01 06:40:19;;;;;;;8.75;3.78;;;16.90;99.90;;;;;;5076573;28;20213;-70
2022/07/01 06:42:47;;;;;;;6.28;3.15;;;17.00;99.90;;;;;;5074518;28;20261;-73
2022/07/01 06:45:14;;;;;;;3.63;2.75;;;17.20;99.90;;;;;;5077509;28;20203;-70
2022/07/01 06:47:41;;;;;;;3.60;2.58;;;17.30;99.90;;;;;;5074025;28;20202;-70
2022/07/01 06:50:09;;;;;;;6.28;3.58;;;17.20;99.90;;;;;;5075775;28;20249;-70
2022/07/01 06:52:36;;;;;;;6.47;3.30;;;17.20;99.90;;;;;;5079097;28;20206;-72
2022/07/01 06:55:03;;;;;;;5.97;2.97;;;17.50;99.90;;;;;;5077502;28;20205;-72
2022/07/01 06:57:30;;;;;;;4.85;3.42;;;17.70;99.90;;;;;;5082104;28;20263;-73
2022/07/01 06:59:58;;;;;;;5.93;3.65;;;17.70;99.90;;;;;;5077758;28;20221;-71
2022/07/01 07:02:25;;;;;;;3.97;2.90;;;17.60;99.90;;;;;;5084336;28;20673;-71
2022/07/01 07:04:56;;;;;;;3.58;2.53;;;17.40;99.90;;;;;;5056600;28;20387;-70
2022/07/01 07:07:23;;;;;;;4.22;3.42;;;17.60;99.90;;;;;;5075713;28;20206;-73
2022/07/01 07:09:50;;;;;;;5.20;3.67;;;17.80;99.90;;;;;;5078187;28;20279;-70
2022/07/01 07:12:17;;;;;;;4.18;2.92;;;17.50;99.90;;;;;;5083262;28;20625;-70
2022/07/01 07:14:44;;;;;;;4.07;3.35;;;17.60;99.90;;;;;;5082160;28;20681;-71
2022/07/01 07:17:13;;;;;;;8.00;3.92;;;17.80;99.90;;;;;;5084679;28;20325;-72
2022/07/01 07:19:40;;;;;;;4.60;3.38;;;17.90;99.90;;;;;;5074920;28;20210;-70
2022/07/01 07:22:07;;;;;;;3.92;3.00;;;17.20;99.90;;;;;;5074769;28;20788;-75
2022/07/01 07:24:34;;;;;;;5.63;3.63;;;17.50;99.90;;;;;;5078423;28;20198;-73
2022/07/01 07:27:01;;;;;;;7.35;4.00;;;17.60;99.90;;;;;;5083587;28;20263;-74
2022/07/01 07:29:29;;;;;;;5.47;3.25;;;17.70;99.90;;;;;;5071005;28;20327;-74
2022/07/01 07:31:56;;;;;;;4.07;3.67;;;17.70;99.90;;;;;;5071796;28;20206;-71
2022/07/01 07:34:24;;;;;;;6.90;3.50;;;17.60;99.90;;;;;;5072022;28;20248;-73
2022/07/01 07:36:51;;;;;;;3.75;2.90;;;17.70;99.90;;;;;;5073392;28;20275;-70
2022/07/01 07:39:18;;;;;;;7.03;3.85;;;17.70;99.90;;;;;;5072730;28;20744;-73
2022/07/01 07:41:45;;;;;;;4.32;3.85;;;17.80;99.90;;;;;;5073174;28;20209;-73
2022/07/01 07:44:12;;;;;;;4.00;3.28;;;18.00;99.90;;;;;;5082398;28;20224;-72
2022/07/01 07:46:39;;;;;;;7.00;3.30;;;18.50;99.90;;;;;;5089504;28;20201;-71
2022/07/01 07:49:06;;;;;;;4.80;2.60;;;19.00;99.90;;;;;;5086937;28;20274;-73
2022/07/01 07:51:34;;;;;;;7.05;3.63;;;19.20;99.90;;;;;;5075759;28;20214;-70
2022/07/01 07:54:02;;;;;;;7.05;3.58;;;19.00;99.90;;;;;;5071195;28;20212;-68
2022/07/01 07:56:29;;;;;;;5.60;2.88;;;18.70;99.90;;;;;;5076619;28;20589;-68
2022/07/01 07:58:56;;;;;;;3.45;2.40;;;19.50;99.90;;;;;;5061135;28;20576;-71
2022/07/01 08:01:23;;;;;;;7.10;2.78;;;19.50;99.90;;;;;;5069734;28;20210;-71
2022/07/01 08:03:51;;;;;;;7.68;2.63;;;19.50;99.90;;;;;;5073350;28;20202;-74
2022/07/01 08:06:18;;;;;;;4.95;4.45;;;19.70;99.90;;;;;;5078267;28;20202;-71
2022/07/01 08:08:46;;;;;;;5.25;2.63;;;19.60;99.90;;;;;;5082745;28;20202;-72
2022/07/01 08:11:13;;;;;;;4.28;2.90;;;19.40;99.90;;;;;;5082009;28;20244;-72
2022/07/01 08:13:40;;;;;;;6.82;3.53;;;19.40;99.90;;;;;;5082874;28;20217;-75
2022/07/01 08:16:08;;;;;;;3.70;2.90;;;19.40;99.90;;;;;;5069617;28;20335;-73
2022/07/01 08:18:35;;;;;;;5.05;3.47;;;19.40;99.90;;;;;;5086055;28;20205;-74
2022/07/01 08:21:02;;;;;;;5.68;2.42;;;19.80;99.90;;;;;;5082406;28;20291;-74
2022/07/01 08:23:29;;;;;;;3.88;2.33;;;19.50;99.90;;;;;;5071523;28;20206;-72
2022/07/01 08:25:57;;;;;;;6.38;2.67;;;19.80;99.90;;;;;;5069196;28;20198;-73
2022/07/01 08:28:24;;;;;;;2.60;2.15;;;19.50;99.90;;;;;;5076546;28;20205;-74
2022/07/01 08:30:51;;;;;;;4.40;2.72;;;19.90;99.90;;;;;;5084779;28;20647;-73
2022/07/01 08:33:18;;;;;;;3.65;2.78;;;20.20;99.90;;;;;;5088108;28;20267;-68
2022/07/01 08:35:45;;;;;;;3.97;2.47;;;20.40;99.90;;;;;;5088226;28;20589;-72
2022/07/01 08:38:12;;;;;;;4.93;2.22;;;20.10;99.90;;;;;;5084469;28;20294;-71
2022/07/01 08:40:39;;;;;;;3.10;2.65;;;20.00;99.90;;;;;;5081670;28;20219;-70
2022/07/01 08:43:08;;;;;;;2.83;2.50;;;20.00;99.90;;;;;;5082120;28;20644;-71
2022/07/01 08:45:37;;;;;;;3.25;2.25;;;20.40;99.90;;;;;;5084230;28;20241;-69
2022/07/01 08:48:05;;;;;;;2.35;2.15;;;21.70;99.90;;;;;;5082962;28;20205;-70
2022/07/01 08:50:35;;;;;;;4.82;3.15;;;21.40;99.90;;;;;;5086337;28;20282;-71
2022/07/01 08:53:03;;;;;;;5.68;3.45;;;21.90;99.90;;;;;;5083706;28;20201;-72
2022/07/01 08:55:30;;;;;;;3.67;2.95;;;22.60;99.90;;;;;;5089334;28;20593;-77
2022/07/01 08:57:58;;;;;;;4.15;2.50;;;22.60;99.90;;;;;;5088909;28;20205;-73
2022/07/01 09:00:33;;;;;;;5.35;3.15;;;22.40;99.90;;;;;;5092027;28;20209;-75
2022/07/01 09:03:02;;;;;;;3.08;1.77;;;21.40;99.90;;;;;;5084701;28;20586;-77
2022/07/01 09:05:31;;;;;;;4.10;1.75;;;21.40;99.90;;;;;;5090016;28;20247;-74
2022/07/01 09:07:59;;;;;;;2.75;2.00;;;21.60;99.90;;;;;;5086088;28;20202;-74
2022/07/01 09:10:27;;;;;;;3.92;2.25;;;21.90;99.90;;;;;;5088988;28;21031;-76
2022/07/01 09:12:54;;;;;;;2.10;1.40;;;21.70;99.90;;;;;;5088325;28;20255;-73
2022/07/01 09:15:26;;;;;;;6.00;2.75;;;21.40;99.90;;;;;;5091309;28;20209;-75
2022/07/01 09:17:56;;;;;;;3.60;2.13;;;20.60;99.90;;;;;;5090186;28;20248;-72
2022/07/01 09:20:29;;;;;;;3.35;2.00;;;20.60;99.90;;;;;;5092649;28;20738;-73
2022/07/01 09:23:00;;;;;;;5.18;2.25;;;19.90;99.90;;;;;;5091254;28;20665;-73
2022/07/01 09:25:29;;;;;;;24.08;2.88;;;22.40;99.90;;;;;;5081036;28;20205;-75
2022/07/01 09:28:12;;;;;;;3.00;2.47;;;28.20;99.90;;;;;;5078859;28;20206;-71
2022/07/01 09:30:40;;;;;;;3.42;1.58;;;31.30;99.90;;;;;;5074102;28;20313;-75
2022/07/01 09:33:11;;;;;;;2.03;1.50;;;31.50;99.90;;;;;;5073367;28;20628;-72
2022/07/01 09:35:38;;;;;;;3.10;1.70;;;29.80;99.90;;;;;;5075309;28;20281;-74
2022/07/01 09:38:07;;;;;;;4.95;2.25;;;26.90;99.90;;;;;;5073434;28;20202;-76
2022/07/01 09:40:51;;;;;;;4.32;2.15;;;26.00;99.90;;;;;;5074568;28;20218;-75
2022/07/01 09:43:24;;;;;;;4.25;1.35;;;23.10;99.90;;;;;;5075141;28;20666;-71
2022/07/01 09:45:59;;;;;;;3.85;1.60;;;21.50;99.90;;;;;;5075152;28;20210;-70
2022/07/01 09:48:42;;;;;;;6.30;2.08;;;20.70;99.90;;;;;;5074900;28;20205;-71
2022/07/01 09:51:10;;;;;;;3.05;1.80;;;20.40;99.90;;;;;;5074141;28;20225;-71
2022/07/01 09:53:37;;;;;;;2.95;2.08;;;20.10;99.90;;;;;;5075280;28;20236;-70
2022/07/01 09:56:04;;;;;;;2.72;1.40;;;20.40;99.90;;;;;;5077449;28;20674;-70
2022/07/01 09:58:32;;;;;;;5.15;1.80;;;20.50;99.90;;;;;;5076158;28;20256;-71
2022/07/01 10:00:59;;;;;;;5.60;2.58;;;20.60;99.90;;;;;;5077607;28;20562;-71
2022/07/01 10:03:28;;;;;;;3.92;2.10;;;21.70;99.90;;;;;;5076667;28;20619;-73
2022/07/01 10:05:56;;;;;;;9.98;2.00;;;23.50;99.90;;;;;;5079780;28;20202;-73
2022/07/01 10:08:43;;;;;;;2.45;1.15;;;26.30;99.90;;;;;;5077313;28;20662;-71
2022/07/01 10:11:48;;;;;;;2.70;1.25;;;28.40;99.90;;;;;;5074684;28;20233;-73
2022/07/01 10:14:17;;;;;;;3.33;2.33;;;24.40;99.90;;;;;;5083926;28;20201;-73
2022/07/01 10:16:48;;;;;;;4.10;1.55;;;22.60;99.90;;;;;;5079213;28;20206;-70
2022/07/01 10:19:30;;;;;;;4.57;1.20;;;21.30;99.90;;;;;;5078979;28;20234;-76
2022/07/01 10:22:01;;;;;;;3.42;1.30;;;20.80;99.90;;;;;;5075818;28;20694;-79
2022/07/01 10:24:28;;;;;;;1.33;1.13;;;20.90;99.90;;;;;;5066132;28;20206;-85
2022/07/01 10:27:01;;;;;;;2.15;1.30;;;24.40;99.90;;;;;;5071775;28;20562;-78
2022/07/01 10:29:30;;;;;;;2.92;1.45;;;29.60;99.90;;;;;;5072104;28;20205;-80
2022/07/01 10:32:02;;;;;;;3.78;1.25;;;29.40;99.90;;;;;;5065518;28;20234;-81
2022/07/01 10:34:41;;;;;;;3.55;1.73;;;33.40;99.90;;;;;;5072118;28;20206;-77
2022/07/01 10:37:10;;;;;;;2.05;1.30;;;34.60;99.90;;;;;;5072954;28;20677;-73
2022/07/01 10:39:55;;;;;;;3.92;1.50;;;35.00;99.90;;;;;;5073194;28;20210;-76
2022/07/01 10:42:27;;;;;;;1.30;0.95;;;29.90;99.90;;;;;;5074951;28;20682;-72
2022/07/01 10:45:02;;;;;;;1.33;0.82;;;24.80;99.90;;;;;;5073003;28;20593;-72
2022/07/01 10:47:30;;;;;;;3.28;1.42;;;23.90;99.90;;;;;;5069816;28;20210;-73
2022/07/01 10:50:00;;;;;;;2.53;1.83;;;23.70;99.90;;;;;;5066247;28;20315;-71
2022/07/01 10:52:27;;;;;;;3.60;1.08;;;23.90;99.90;;;;;;5072176;28;20254;-75
2022/07/01 10:54:56;;;;;;;5.40;1.35;;;23.00;99.90;;;;;;5076416;28;20209;-73
2022/07/01 10:57:31;;;;;;;7.25;1.52;;;22.80;99.90;;;;;;5081933;28;20290;-75
2022/07/01 11:00:31;;;;;;;3.78;1.42;;;22.60;99.90;;;;;;5076990;28;20309;-72
2022/07/01 11:03:20;;;;;;;1.30;1.08;;;22.50;99.90;;;;;;5076203;28;20210;-74
2022/07/01 11:05:51;;;;;;;3.80;1.23;;;23.00;99.90;;;;;;5064678;28;20252;-71
2022/07/01 11:08:18;;;;;;;3.55;1.17;;;23.30;99.90;;;;;;5066033;28;20630;-72
2022/07/01 11:10:49;;;;;;;2.22;0.88;;;24.10;99.90;;;;;;5082233;28;20270;-71
2022/07/01 11:13:17;;;;;;;4.68;1.58;;;22.60;99.90;;;;;;5079857;28;20355;-70
2022/07/01 11:15:47;;;;;;;3.00;1.10;;;22.10;99.90;;;;;;5069517;28;20259;-70
2022/07/01 11:18:15;;;;;;;2.90;1.63;;;21.30;99.90;;;;;;5081981;28;20216;-70
2022/07/01 11:20:43;;;;;;;3.75;2.25;;;21.10;99.90;;;;;;5079703;28;20252;-70
2022/07/01 11:23:11;;;;;;;5.07;1.23;;;21.50;99.90;;;;;;5070920;28;20629;-71
2022/07/01 11:25:39;;;;;;;3.42;1.48;;;22.10;99.90;;;;;;5071033;28;20202;-72
2022/07/01 11:28:06;;;;;;;2.90;1.02;;;22.60;99.90;;;;;;5070979;28;20664;-71
2022/07/01 11:30:33;;;;;;;2.25;1.00;;;22.50;99.90;;;;;;5070696;28;20272;-72
2022/07/01 11:33:00;;;;;;;2.15;0.93;;;22.60;99.90;;;;;;5070569;28;20202;-71
2022/07/01 11:41:02;;;;;;;4.60;1.25;;;21.60;99.90;;;;;;5070250;28;20299;-70
2022/07/01 11:43:30;;;;;;;1.25;1.15;;;21.70;99.90;;;;;;5070989;28;20210;-70
2022/07/01 11:46:00;;;;;;;1.30;1.20;;;21.90;99.90;;;;;;5070455;28;20202;-70
2022/07/01 11:48:31;;;;;;;1.70;0.90;;;22.20;99.90;;;;;;5070523;28;20599;-72
2022/07/01 11:50:59;;;;;;;1.55;0.98;;;22.50;99.90;;;;;;5070194;28;20276;-72
2022/07/01 11:53:28;;;;;;;5.35;1.02;;;22.90;99.90;;;;;;5067895;28;20252;-71
2022/07/01 11:55:55;;;;;;;1.30;0.90;;;23.10;99.90;;;;;;5066830;28;20292;-71
2022/07/01 11:58:22;;;;;;;1.52;0.98;;;23.20;99.90;;;;;;5070818;28;20264;-71
2022/07/01 12:00:49;;;;;;;2.22;1.17;;;22.80;99.90;;;;;;5070093;28;20294;-71
2022/07/01 12:03:30;;;;;;;3.28;1.50;;;22.30;99.90;;;;;;5070476;28;20205;-71
2022/07/01 12:05:58;;;;;;;2.30;1.20;;;21.90;99.90;;;;;;5069969;28;20213;-71
2022/07/01 12:08:27;;;;;;;1.80;0.90;;;22.30;99.90;;;;;;5070534;28;20227;-71
2022/07/01 12:10:57;;;;;;;3.35;0.90;;;23.30;99.90;;;;;;5070217;28;20226;-72
2022/07/01 12:13:26;;;;;;;4.72;1.38;;;23.90;99.90;;;;;;5070576;28;20674;-71
2022/07/01 12:15:53;;;;;;;2.22;0.90;;;24.00;99.90;;;;;;5070066;28;20239;-71
2022/07/01 12:18:20;;;;;;;3.13;0.82;;;24.10;99.90;;;;;;5070067;28;20269;-71
2022/07/01 12:20:53;;;;;;;1.52;1.42;;;24.20;99.90;;;;;;5070150;28;20743;-71
2022/07/01 12:23:20;;;;;;;3.08;0.90;;;23.90;99.90;;;;;;5069060;28;20259;-76
2022/07/01 12:25:50;;;;;;;1.60;1.17;;;24.00;99.90;;;;;;5086219;28;20296;-74
2022/07/01 12:28:31;;;;;;;0.70;0.60;;;24.50;99.90;;;;;;5087491;28;20631;-74
2022/07/01 12:31:09;;;;;;;2.78;0.88;;;23.80;99.90;;;;;;5060431;28;20261;-73
2022/07/01 12:33:38;;;;;;;1.58;1.17;;;23.10;99.90;;;;;;5075771;28;20214;-71
2022/07/01 12:36:06;;;;;;;1.65;1.10;;;22.80;99.90;;;;;;5075471;28;20265;-77
2022/07/01 12:38:33;;;;;;;1.75;0.88;;;22.60;99.90;;;;;;5077377;28;20255;-76
2022/07/01 12:41:01;;;;;;;1.83;1.17;;;22.70;99.90;;;;;;5073093;28;20217;-70
2022/07/01 12:43:31;;;;;;;1.73;0.80;;;23.20;99.90;;;;;;5093440;28;20266;-70
2022/07/01 12:45:59;;;;;;;2.95;0.93;;;23.60;99.90;;;;;;5090390;28;20198;-70
2022/07/01 12:48:26;;;;;;;1.80;0.82;;;23.10;99.90;;;;;;5091504;28;20263;-69
2022/07/01 12:50:56;;;;;;;1.88;0.70;;;22.60;99.90;;;;;;5087292;28;20265;-72
2022/07/01 12:53:24;;;;;;;3.00;0.80;;;23.00;99.90;;;;;;5092200;28;20311;-76
2022/07/01 12:55:52;;;;;;;2.53;0.70;;;23.70;99.90;;;;;;5090978;28;20259;-75
2022/07/01 12:58:23;;;;;;;1.23;0.73;;;24.30;99.90;;;;;;5088110;28;20256;-72
2022/07/01 13:00:52;;;;;;;1.30;1.02;;;24.10;99.90;;;;;;5086583;28;20198;-74
2022/07/01 13:03:22;;;;;;;1.38;0.85;;;23.70;99.90;;;;;;5087586;28;20254;-75
2022/07/01 13:05:50;;;;;;;1.65;0.90;;;24.10;99.90;;;;;;5088720;28;20267;-72
2022/07/01 13:08:17;;;;;;;1.13;1.08;;;23.80;99.90;;;;;;5087451;28;20206;-72